Time;durP1;ratioP1;P1;durP2;ratioP2;P2;SDS_P1;SDS_P2;PMS_P1;PMS_P2;Temp;Humidity;BMP_temperature;BMP_pressure;BME280_temperature;BME280_humidity;BME280_pressure;Samples;Min_cycle;Max_cycle;Signal;HPM_P1;HPM_P2
2021/12/21 00:01:22;;;;;;;16.48;6.20;;;-4.80;99.90;;;;;;5074556;28;20024;-74
2021/12/21 00:03:47;;;;;;;14.98;6.05;;;-4.80;99.90;;;;;;5076387;28;20032;-74
2021/12/21 00:06:13;;;;;;;14.27;6.13;;;-4.80;99.90;;;;;;5076899;28;20104;-74
2021/12/21 00:08:39;;;;;;;12.98;5.90;;;-4.80;99.90;;;;;;5077221;28;20033;-73
2021/12/21 00:11:04;;;;;;;15.60;6.88;;;-4.90;99.90;;;;;;5074616;28;20029;-74
2021/12/21 00:16:11;;;;;;;16.30;7.40;;;-5.00;99.90;;;;;;5075827;28;20479;-74
2021/12/21 00:19:05;;;;;;;15.82;5.97;;;-5.00;99.90;;;;;;5075790;28;20480;-74
2021/12/21 00:21:37;;;;;;;15.68;6.22;;;-5.10;99.90;;;;;;5074144;28;20475;-73
2021/12/21 00:24:11;;;;;;;13.48;5.70;;;-5.10;99.90;;;;;;5075490;28;20086;-74
2021/12/21 00:26:37;;;;;;;12.77;5.53;;;-5.10;99.90;;;;;;5074110;28;20056;-74
2021/12/21 00:29:03;;;;;;;15.95;6.22;;;-5.10;99.90;;;;;;5075269;28;20035;-74
2021/12/21 00:31:35;;;;;;;15.18;6.80;;;-5.10;99.90;;;;;;5075213;28;20025;-73
2021/12/21 00:34:02;;;;;;;15.32;7.28;;;-5.20;99.90;;;;;;5075369;28;20029;-74
2021/12/21 00:36:30;;;;;;;14.32;6.20;;;-5.20;99.90;;;;;;5075130;28;20531;-74
2021/12/21 00:39:04;;;;;;;15.45;6.40;;;-5.20;99.90;;;;;;5074099;28;20455;-74
2021/12/21 00:41:31;;;;;;;15.95;6.65;;;-5.20;99.90;;;;;;5075269;28;20024;-72
2021/12/21 00:43:57;;;;;;;15.20;7.47;;;-5.20;99.90;;;;;;5075248;28;20021;-74
2021/12/21 00:46:23;;;;;;;13.05;5.85;;;-5.20;99.90;;;;;;5075230;28;20024;-74
2021/12/21 00:48:52;;;;;;;15.15;6.30;;;-5.30;99.90;;;;;;5074888;28;20112;-73
2021/12/21 00:51:20;;;;;;;16.30;6.20;;;-5.30;99.90;;;;;;5075019;28;20025;-73
2021/12/21 00:53:46;;;;;;;13.95;6.13;;;-5.30;99.90;;;;;;5074537;28;20040;-74
2021/12/21 00:56:12;;;;;;;13.35;5.85;;;-5.40;99.90;;;;;;5074732;28;20032;-73
2021/12/21 00:58:38;;;;;;;12.80;4.47;;;-5.40;99.90;;;;;;5074674;28;20028;-74
2021/12/21 01:01:05;;;;;;;9.32;4.45;;;-5.40;99.90;;;;;;5074581;28;20021;-74
2021/12/21 01:03:37;;;;;;;14.68;4.95;;;-5.40;99.90;;;;;;5074459;28;20085;-74
2021/12/21 01:11:51;;;;;;;15.73;6.63;;;-5.50;99.90;;;;;;5074419;28;20036;-73
2021/12/21 01:19:44;;;;;;;16.98;6.00;;;-5.60;99.90;;;;;;5074571;28;20021;-73
2021/12/21 01:30:04;;;;;;;18.13;7.00;;;-5.70;99.90;;;;;;5074557;28;20032;-73
2021/12/21 01:35:36;;;;;;;15.60;6.45;;;-5.70;99.90;;;;;;5064352;28;20404;-73
2021/12/21 01:38:11;;;;;;;15.55;6.45;;;-5.70;99.90;;;;;;5074537;28;20025;-73
2021/12/21 01:43:19;;;;;;;11.40;5.10;;;-5.70;99.90;;;;;;5074127;28;20115;-73
2021/12/21 01:51:16;;;;;;;21.65;7.97;;;-5.80;99.90;;;;;;5074298;28;20047;-73
2021/12/21 01:53:43;;;;;;;14.77;5.93;;;-5.80;99.90;;;;;;5073552;28;20104;-73
2021/12/21 01:56:09;;;;;;;12.65;4.30;;;-5.90;99.90;;;;;;5073659;28;20020;-73
2021/12/21 01:58:37;;;;;;;16.45;5.95;;;-5.90;99.90;;;;;;5073641;28;20052;-73
2021/12/21 02:01:15;;;;;;;9.32;4.28;;;-6.00;99.90;;;;;;5073524;28;20026;-74
2021/12/21 02:03:47;;;;;;;14.82;5.97;;;-6.10;99.90;;;;;;5073514;28;20024;-73
2021/12/21 02:06:21;;;;;;;14.65;5.47;;;-6.10;99.90;;;;;;5073486;28;20029;-73
2021/12/21 02:08:47;;;;;;;15.68;6.90;;;-6.10;99.90;;;;;;5073790;28;20035;-73
2021/12/21 02:11:13;;;;;;;18.45;6.18;;;-6.10;99.90;;;;;;5073403;28;20039;-73
2021/12/21 02:13:44;;;;;;;15.80;6.03;;;-6.10;99.90;;;;;;5073280;28;20099;-74
2021/12/21 02:16:10;;;;;;;;;;;-6.20;99.90;;;;;;5073898;28;20017;-74
2021/12/21 02:19:22;;;;;;;12.25;5.00;;;-6.20;99.90;;;;;;5072086;28;19966;-74
2021/12/21 02:21:36;;;;;;;14.27;5.43;;;-6.20;99.90;;;;;;5067560;28;20059;-74
2021/12/21 02:24:08;;;;;;;12.88;4.65;;;-6.20;99.90;;;;;;5072121;28;20480;-73
2021/12/21 02:26:40;;;;;;;10.75;4.45;;;-6.20;99.90;;;;;;5073884;28;20029;-74
2021/12/21 02:29:17;;;;;;;12.57;5.22;;;-6.20;99.90;;;;;;5072145;28;20036;-73
2021/12/21 02:31:47;;;;;;;8.60;3.60;;;-6.10;99.90;;;;;;5073309;28;20020;-74
2021/12/21 02:34:14;;;;;;;12.77;4.63;;;-6.10;99.90;;;;;;5073246;28;20112;-73
2021/12/21 02:36:44;;;;;;;10.45;4.47;;;-6.10;99.90;;;;;;5073296;28;20426;-74
2021/12/21 02:39:10;;;;;;;12.93;5.57;;;-6.10;99.90;;;;;;5073516;28;20012;-74
2021/12/21 02:41:38;;;;;;;10.57;5.03;;;-6.10;99.90;;;;;;5073126;28;20047;-73
2021/12/21 02:44:04;;;;;;;10.70;5.05;;;-6.10;99.90;;;;;;5071883;28;20029;-74
2021/12/21 02:46:30;;;;;;;11.23;5.57;;;-6.10;99.90;;;;;;5073189;28;20047;-74
2021/12/21 02:48:56;;;;;;;10.82;4.65;;;-6.10;99.90;;;;;;5076840;28;20480;-74
2021/12/21 02:51:23;;;;;;;13.40;4.45;;;-6.10;99.90;;;;;;5077580;28;20044;-74
2021/12/21 02:53:48;;;;;;;10.45;4.63;;;-6.20;99.90;;;;;;5076769;28;20085;-74
2021/12/21 02:56:14;;;;;;;12.75;4.47;;;-6.20;99.90;;;;;;5076954;28;20099;-74
2021/12/21 02:58:41;;;;;;;12.63;4.32;;;-6.20;99.90;;;;;;5077264;28;20107;-74
2021/12/21 03:01:08;;;;;;;12.52;4.82;;;-6.20;99.90;;;;;;5076895;28;20027;-74
2021/12/21 03:03:34;;;;;;;10.57;4.70;;;-6.20;99.90;;;;;;5075514;28;20024;-74
2021/12/21 03:06:01;;;;;;;9.50;4.38;;;-6.20;99.90;;;;;;5076780;28;20024;-74
2021/12/21 03:08:49;;;;;;;10.18;4.70;;;-6.30;99.90;;;;;;5076793;28;20029;-74
2021/12/21 03:11:24;;;;;;;14.77;4.80;;;-6.20;99.90;;;;;;5075512;28;20021;-74
2021/12/21 03:14:05;;;;;;;9.00;4.10;;;-6.30;99.90;;;;;;5076920;28;20017;-74
2021/12/21 03:16:36;;;;;;;12.30;5.75;;;-6.30;99.90;;;;;;5077036;28;20499;-74
2021/12/21 03:19:03;;;;;;;16.60;7.07;;;-6.20;99.90;;;;;;5077390;28;20137;-74
2021/12/21 03:21:29;;;;;;;23.42;10.18;;;-6.20;99.90;;;;;;5075292;28;20383;-74
2021/12/21 03:23:55;;;;;;;21.40;8.30;;;-6.20;99.90;;;;;;5076527;28;20079;-74
2021/12/21 03:26:21;;;;;;;15.38;6.70;;;-6.20;99.90;;;;;;5076751;28;20408;-74
2021/12/21 03:28:47;;;;;;;15.30;6.50;;;-6.30;99.90;;;;;;5075073;28;20029;-76
2021/12/21 03:31:13;;;;;;;12.05;5.50;;;-6.30;99.90;;;;;;5076289;28;20032;-74
2021/12/21 03:33:38;;;;;;;15.30;5.13;;;-6.30;99.90;;;;;;5074846;28;20021;-74
2021/12/21 03:36:05;;;;;;;12.88;5.07;;;-6.40;99.90;;;;;;5076532;28;20025;-74
2021/12/21 03:38:32;;;;;;;14.05;5.55;;;-6.40;99.90;;;;;;5074950;28;20025;-74
2021/12/21 03:41:04;;;;;;;17.30;7.03;;;-6.40;99.90;;;;;;5076456;28;20043;-74
2021/12/21 03:43:31;;;;;;;23.48;6.20;;;-6.50;99.90;;;;;;5076256;28;20079;-74
2021/12/21 03:46:07;;;;;;;31.02;5.78;;;-6.50;99.90;;;;;;5076051;28;20024;-74
2021/12/21 03:48:33;;;;;;;16.00;6.07;;;-6.60;99.90;;;;;;5076415;28;20032;-73
2021/12/21 03:50:58;;;;;;;18.85;5.90;;;-6.60;99.90;;;;;;5075922;28;20021;-73
2021/12/21 03:53:24;;;;;;;17.83;5.78;;;-6.60;99.90;;;;;;5075746;28;20032;-74
2021/12/21 03:56:01;;;;;;;18.42;6.70;;;-6.60;99.90;;;;;;5075852;28;20027;-74
2021/12/21 03:58:26;;;;;;;16.63;5.65;;;-6.60;99.90;;;;;;5075889;28;20126;-74
2021/12/21 04:00:52;;;;;;;17.52;5.53;;;-6.70;99.90;;;;;;5075814;28;20103;-74
2021/12/21 04:03:18;;;;;;;16.63;5.97;;;-6.60;99.90;;;;;;5075667;28;20088;-74
2021/12/21 04:05:43;;;;;;;14.43;5.78;;;-6.60;99.90;;;;;;5075696;28;20595;-74
2021/12/21 04:08:09;;;;;;;15.23;5.95;;;-6.60;99.90;;;;;;5075650;28;20032;-74
2021/12/21 04:10:35;;;;;;;14.80;5.68;;;-6.60;99.90;;;;;;5075958;28;20024;-74
2021/12/21 04:13:01;;;;;;;19.92;6.07;;;-6.50;99.90;;;;;;5075500;28;20095;-73
2021/12/21 04:15:29;;;;;;;18.88;6.40;;;-6.50;99.90;;;;;;5075797;28;20017;-74
2021/12/21 04:17:54;;;;;;;21.88;6.68;;;-6.50;99.90;;;;;;5075782;28;20518;-74
2021/12/21 04:20:20;;;;;;;17.73;7.20;;;-6.50;99.90;;;;;;5075476;28;20025;-73
2021/12/21 04:22:46;;;;;;;21.42;6.72;;;-6.50;99.90;;;;;;5075670;28;20074;-73
2021/12/21 04:25:12;;;;;;;16.40;5.88;;;-6.50;99.90;;;;;;5075372;28;20024;-73
2021/12/21 04:27:38;;;;;;;16.73;5.88;;;-6.50;99.90;;;;;;5075390;28;20032;-73
2021/12/21 04:30:04;;;;;;;27.10;7.28;;;-6.50;99.90;;;;;;5075483;28;20089;-73
2021/12/21 04:32:30;;;;;;;26.20;9.02;;;-6.50;99.90;;;;;;5075480;28;20073;-73
2021/12/21 04:34:55;;;;;;;31.50;9.35;;;-6.50;99.90;;;;;;5073805;28;20115;-74
2021/12/21 04:37:23;;;;;;;22.33;8.98;;;-6.60;99.90;;;;;;5073922;28;20385;-73
2021/12/21 04:39:58;;;;;;;24.27;8.70;;;-6.60;99.90;;;;;;5075325;28;20019;-74
2021/12/21 04:42:23;;;;;;;23.05;8.15;;;-6.60;99.90;;;;;;5075022;28;20468;-74
2021/12/21 04:44:49;;;;;;;17.23;6.13;;;-6.60;99.90;;;;;;5074973;28;20035;-74
2021/12/21 04:47:15;;;;;;;14.70;6.13;;;-6.60;99.90;;;;;;5074958;28;20031;-74
2021/12/21 04:49:41;;;;;;;13.93;5.80;;;-6.60;99.90;;;;;;5073597;28;20031;-73
2021/12/21 04:52:07;;;;;;;19.45;7.47;;;-6.60;99.90;;;;;;5073403;28;20032;-74
2021/12/21 04:54:33;;;;;;;24.73;9.80;;;-6.60;99.90;;;;;;5074644;28;20032;-74
2021/12/21 04:56:59;;;;;;;30.00;11.82;;;-6.60;99.90;;;;;;5074736;28;20017;-74
2021/12/21 04:59:24;;;;;;;22.60;10.02;;;-6.60;99.90;;;;;;5075156;28;20025;-74
2021/12/21 05:01:52;;;;;;;26.48;11.18;;;-6.60;99.90;;;;;;5074808;28;20039;-73
2021/12/21 05:04:18;;;;;;;19.45;8.13;;;-6.60;99.90;;;;;;5074564;28;20434;-74
2021/12/21 05:06:43;;;;;;;12.35;5.55;;;-6.60;99.90;;;;;;5074576;28;20024;-74
2021/12/21 05:09:13;;;;;;;11.65;4.55;;;-6.60;99.90;;;;;;5074816;28;20384;-74
2021/12/21 05:11:42;;;;;;;8.47;3.90;;;-6.70;99.90;;;;;;5073884;28;20130;-73
2021/12/21 05:14:09;;;;;;;11.15;4.70;;;-6.80;99.90;;;;;;5074289;28;20027;-74
2021/12/21 05:16:35;;;;;;;11.80;4.75;;;-6.80;99.90;;;;;;5074656;28;20376;-74
2021/12/21 05:19:01;;;;;;;18.30;6.25;;;-6.80;99.90;;;;;;5074325;28;20023;-74
2021/12/21 05:21:26;;;;;;;10.43;4.97;;;-6.80;99.90;;;;;;5074288;28;20024;-74
2021/12/21 05:23:52;;;;;;;9.57;4.20;;;-6.70;99.90;;;;;;5072770;28;20032;-74
2021/12/21 05:26:18;;;;;;;9.48;4.03;;;-6.70;99.90;;;;;;5074409;28;20060;-74
2021/12/21 05:28:43;;;;;;;14.73;5.07;;;-6.70;99.90;;;;;;5074398;28;20028;-74
2021/12/21 05:31:09;;;;;;;13.70;6.60;;;-6.70;99.90;;;;;;5074322;28;20039;-74
2021/12/21 05:33:35;;;;;;;39.03;16.60;;;-6.90;99.90;;;;;;5074639;28;20063;-74
2021/12/21 05:36:01;;;;;;;28.92;11.55;;;-7.00;99.90;;;;;;5073961;28;20050;-74
2021/12/21 05:38:32;;;;;;;22.58;9.95;;;-7.20;99.90;;;;;;5074386;28;20020;-74
2021/12/21 05:41:01;;;;;;;16.77;7.25;;;-7.30;99.90;;;;;;5074218;28;20024;-75
2021/12/21 05:43:28;;;;;;;13.15;5.85;;;-7.30;99.90;;;;;;5073700;28;20012;-75
2021/12/21 05:45:54;;;;;;;10.68;5.25;;;-7.20;99.90;;;;;;5074070;28;20021;-75
2021/12/21 05:48:19;;;;;;;12.10;4.25;;;-7.20;99.90;;;;;;5074328;28;20028;-75
2021/12/21 05:50:45;;;;;;;13.90;5.18;;;-7.20;99.90;;;;;;5072462;28;20406;-75
2021/12/21 05:53:11;;;;;;;14.48;6.32;;;-7.20;99.90;;;;;;5074020;28;20033;-72
2021/12/21 05:55:36;;;;;;;13.15;6.07;;;-7.20;99.90;;;;;;5073765;28;20361;-71
2021/12/21 05:58:02;;;;;;;26.25;7.88;;;-7.20;99.90;;;;;;5073908;28;20024;-71
2021/12/21 06:00:33;;;;;;;22.00;8.35;;;-7.20;99.90;;;;;;5073587;28;20024;-71
2021/12/21 06:02:59;;;;;;;23.02;8.20;;;-7.10;99.90;;;;;;5074121;28;20381;-71
2021/12/21 06:05:24;;;;;;;23.70;7.97;;;-7.20;99.90;;;;;;5073550;28;20040;-71
2021/12/21 06:07:52;;;;;;;20.70;7.30;;;-7.30;99.90;;;;;;5073538;28;20033;-71
2021/12/21 06:10:26;;;;;;;28.75;7.38;;;-7.40;99.90;;;;;;5073776;28;20415;-71
2021/12/21 06:26:00;;;;;;;36.15;10.07;;;-7.50;99.90;;;;;;5073363;28;20024;-71
2021/12/21 06:28:25;;;;;;;29.23;10.15;;;-7.50;99.90;;;;;;5073563;28;20056;-72
2021/12/21 06:30:51;;;;;;;25.42;10.18;;;-7.50;99.90;;;;;;5073302;28;20048;-71
2021/12/21 06:33:18;;;;;;;29.30;11.75;;;-7.50;99.90;;;;;;5073449;28;20024;-71
2021/12/21 06:35:44;;;;;;;23.70;10.38;;;-7.50;99.90;;;;;;5073771;28;20024;-71
2021/12/21 06:38:10;;;;;;;25.30;10.48;;;-7.50;99.90;;;;;;5073473;28;20082;-71
2021/12/21 06:40:37;;;;;;;19.65;10.30;;;-7.50;99.90;;;;;;5073693;28;20020;-71
2021/12/21 06:43:03;;;;;;;17.70;8.63;;;-7.50;99.90;;;;;;5073246;28;20074;-72
2021/12/21 06:53:26;;;;;;;17.63;7.22;;;-7.40;99.90;;;;;;5072828;28;20055;-71
2021/12/21 06:55:52;;;;;;;17.02;7.15;;;-7.50;99.90;;;;;;5073151;28;20025;-71
2021/12/21 06:58:18;;;;;;;20.58;6.05;;;-7.50;99.90;;;;;;5073086;28;20020;-71
2021/12/21 07:00:45;;;;;;;13.88;5.93;;;-7.60;99.90;;;;;;5073288;28;20025;-71
2021/12/21 07:03:13;;;;;;;15.40;5.45;;;-7.60;99.90;;;;;;5072978;28;20024;-71
2021/12/21 07:05:40;;;;;;;19.08;7.15;;;-7.60;99.90;;;;;;5073512;28;20074;-71
2021/12/21 07:08:11;;;;;;;33.00;8.63;;;-7.60;99.90;;;;;;5071732;28;20028;-71
2021/12/21 07:10:38;;;;;;;17.17;7.40;;;-7.60;99.90;;;;;;5073471;28;20048;-71
2021/12/21 07:18:38;;;;;;;16.08;6.28;;;-7.70;99.90;;;;;;5073195;28;20051;-71
2021/12/21 07:21:04;;;;;;;16.75;6.43;;;-7.70;99.90;;;;;;5073099;28;20488;-71
2021/12/21 07:23:30;;;;;;;12.90;5.68;;;-7.70;99.90;;;;;;5072771;28;20100;-71
2021/12/21 07:25:56;;;;;;;15.20;5.70;;;-7.70;99.90;;;;;;5073091;28;20020;-71
2021/12/21 07:28:22;;;;;;;19.40;6.43;;;-7.70;99.90;;;;;;5073049;28;20074;-71
2021/12/21 07:30:48;;;;;;;13.02;5.40;;;-7.70;99.90;;;;;;5072735;28;20032;-71
2021/12/21 07:33:16;;;;;;;11.23;5.20;;;-7.70;99.90;;;;;;5072592;28;20021;-71
2021/12/21 07:35:42;;;;;;;10.80;4.90;;;-7.80;99.90;;;;;;5076281;28;20111;-71
2021/12/21 07:38:08;;;;;;;15.02;5.80;;;-7.90;99.90;;;;;;5076265;28;20028;-72
2021/12/21 07:40:34;;;;;;;20.13;8.57;;;-7.90;99.90;;;;;;5076191;28;20029;-71
2021/12/21 07:43:00;;;;;;;23.80;8.13;;;-8.00;99.90;;;;;;5075274;28;20020;-71
2021/12/21 07:45:26;;;;;;;25.92;8.50;;;-8.00;99.90;;;;;;5076130;28;20384;-71
2021/12/21 07:47:52;;;;;;;22.98;8.57;;;-8.00;99.90;;;;;;5076362;28;20112;-71
2021/12/21 07:50:19;;;;;;;17.27;6.85;;;-8.00;99.90;;;;;;5076676;28;20107;-71
2021/12/21 07:52:45;;;;;;;18.63;7.35;;;-8.00;99.90;;;;;;5075959;28;20112;-71
2021/12/21 07:55:11;;;;;;;17.73;6.43;;;-8.00;99.90;;;;;;5076211;28;20539;-71
2021/12/21 07:57:37;;;;;;;21.35;6.13;;;-8.00;99.90;;;;;;5075681;28;20024;-72
2021/12/21 08:00:08;;;;;;;20.48;7.00;;;-8.00;99.90;;;;;;5076351;28;20017;-71
2021/12/21 08:02:34;;;;;;;22.35;6.63;;;-8.00;99.90;;;;;;5075964;28;20027;-71
2021/12/21 08:05:05;;;;;;;19.40;6.30;;;-8.00;99.90;;;;;;5075816;28;20036;-71
2021/12/21 08:07:34;;;;;;;;;;;-8.00;99.90;;;;;;5074944;28;20024;-71
2021/12/21 08:10:16;;;;;;;15.13;6.13;;;-7.90;99.90;;;;;;5075981;28;19904;-71
2021/12/21 08:12:42;;;;;;;12.45;5.45;;;-7.90;99.90;;;;;;5075701;28;20078;-71
2021/12/21 08:15:09;;;;;;;16.55;7.78;;;-7.90;99.90;;;;;;5075765;28;20032;-71
2021/12/21 08:17:34;;;;;;;17.15;7.00;;;-7.90;99.90;;;;;;5075838;28;20111;-71
2021/12/21 08:20:00;;;;;;;16.58;8.10;;;-7.90;99.90;;;;;;5075574;28;20109;-71
2021/12/21 08:22:25;;;;;;;13.30;6.65;;;-7.90;99.90;;;;;;5075338;28;20027;-71
2021/12/21 08:24:51;;;;;;;17.08;8.00;;;-7.80;99.90;;;;;;5074153;28;20044;-71
2021/12/21 08:27:17;;;;;;;20.23;8.73;;;-7.80;99.90;;;;;;5075361;28;20024;-71
2021/12/21 08:29:43;;;;;;;17.15;6.45;;;-7.70;99.90;;;;;;5075856;28;20388;-71
2021/12/21 08:32:09;;;;;;;15.77;6.65;;;-7.70;99.90;;;;;;5075215;28;20104;-71
2021/12/21 08:34:34;;;;;;;18.33;6.90;;;-7.60;99.90;;;;;;5075191;28;20025;-71
2021/12/21 08:37:00;;;;;;;22.60;6.88;;;-7.70;99.90;;;;;;5075128;28;20049;-71
2021/12/21 08:39:27;;;;;;;23.65;7.03;;;-7.80;99.90;;;;;;5075237;28;20024;-71
2021/12/21 08:41:58;;;;;;;21.30;6.80;;;-7.80;99.90;;;;;;5075238;28;20472;-71
2021/12/21 08:44:27;;;;;;;18.17;7.50;;;-7.80;99.90;;;;;;5075317;28;20024;-71
2021/12/21 08:46:57;;;;;;;13.95;6.30;;;-7.80;99.90;;;;;;5074963;28;20028;-71
2021/12/21 08:49:23;;;;;;;16.58;5.78;;;-7.80;99.90;;;;;;5074946;28;20031;-71
2021/12/21 08:51:48;;;;;;;18.55;6.38;;;-7.70;99.90;;;;;;5074603;28;20028;-71
2021/12/21 08:54:14;;;;;;;17.52;5.90;;;-7.70;99.90;;;;;;5073638;28;20078;-71
2021/12/21 08:56:40;;;;;;;21.52;5.88;;;-7.70;99.90;;;;;;5074831;28;20071;-71
2021/12/21 08:59:06;;;;;;;15.32;5.63;;;-7.60;99.90;;;;;;5074810;28;20031;-71
2021/12/21 09:01:32;;;;;;;21.85;5.95;;;-7.60;99.90;;;;;;5074593;28;20025;-72
2021/12/21 09:03:57;;;;;;;20.08;6.35;;;-7.60;99.90;;;;;;5074697;28;20389;-71
2021/12/21 09:06:24;;;;;;;24.15;7.13;;;-7.60;99.90;;;;;;5074652;28;20080;-71
2021/12/21 09:08:50;;;;;;;18.58;8.07;;;-7.60;99.90;;;;;;5074814;28;20465;-71
2021/12/21 09:11:16;;;;;;;24.20;8.75;;;-7.50;99.90;;;;;;5074544;28;20036;-71
2021/12/21 09:13:41;;;;;;;18.75;6.82;;;-7.50;99.90;;;;;;5074359;28;20052;-71
2021/12/21 09:16:07;;;;;;;28.52;8.43;;;-7.40;99.90;;;;;;5074805;28;20467;-71
2021/12/21 09:18:33;;;;;;;27.85;7.35;;;-7.40;99.90;;;;;;5073358;28;20020;-71
2021/12/21 09:20:58;;;;;;;22.88;8.13;;;-7.40;99.90;;;;;;5074728;28;20025;-71
2021/12/21 09:23:24;;;;;;;24.00;7.53;;;-7.40;99.90;;;;;;5074208;28;20029;-71
2021/12/21 09:25:50;;;;;;;22.35;7.75;;;-7.30;99.90;;;;;;5074206;28;20454;-71
2021/12/21 09:28:15;;;;;;;23.15;7.55;;;-7.30;99.90;;;;;;5074096;28;20028;-71
2021/12/21 09:30:41;;;;;;;26.70;8.20;;;-7.30;99.90;;;;;;5072796;28;20050;-71
2021/12/21 09:33:07;;;;;;;26.63;8.25;;;-7.30;99.90;;;;;;5074136;28;20091;-71
2021/12/21 09:35:32;;;;;;;29.17;8.25;;;-7.20;99.90;;;;;;5072620;28;20032;-71
2021/12/21 09:37:58;;;;;;;23.05;7.30;;;-7.10;99.90;;;;;;5074293;28;20035;-71
2021/12/21 09:40:28;;;;;;;18.33;7.95;;;-7.00;99.90;;;;;;5073863;28;20016;-71
2021/12/21 09:42:55;;;;;;;23.73;8.10;;;-6.90;99.90;;;;;;5072519;28;20048;-71
2021/12/21 09:45:21;;;;;;;22.48;9.38;;;-6.80;99.90;;;;;;5073816;28;20392;-71
2021/12/21 09:47:49;;;;;;;23.77;8.85;;;-6.70;99.90;;;;;;5073864;28;20037;-71
2021/12/21 09:50:16;;;;;;;22.98;7.22;;;-6.60;99.90;;;;;;5074070;28;20025;-71
2021/12/21 09:52:42;;;;;;;27.08;8.73;;;-6.60;99.90;;;;;;5073533;28;20035;-71
2021/12/21 09:55:10;;;;;;;23.67;7.57;;;-6.50;99.90;;;;;;5073904;28;20028;-71
2021/12/21 09:57:36;;;;;;;20.95;6.93;;;-6.40;99.90;;;;;;5073226;28;20048;-71
2021/12/21 10:00:08;;;;;;;31.58;9.52;;;-6.30;99.90;;;;;;5073636;28;20117;-71
2021/12/21 10:02:34;;;;;;;29.55;9.35;;;-6.20;99.90;;;;;;5073465;28;20016;-71
2021/12/21 10:05:04;;;;;;;28.17;9.10;;;-6.10;99.90;;;;;;5073835;28;20032;-71
2021/12/21 10:07:30;;;;;;;31.40;10.38;;;-6.10;99.90;;;;;;5073802;28;20488;-71
2021/12/21 10:10:16;;;;;;;38.20;10.52;;;-6.10;99.90;;;;;;5073480;28;20090;-71
2021/12/21 10:12:44;;;;;;;30.23;10.02;;;-6.00;99.90;;;;;;5073735;28;20035;-72
2021/12/21 10:15:11;;;;;;;25.42;10.25;;;-5.90;99.90;;;;;;5073697;28;20101;-71
2021/12/21 10:17:46;;;;;;;35.33;11.27;;;-5.90;99.90;;;;;;5073495;28;20028;-71
2021/12/21 10:20:13;;;;;;;38.85;10.85;;;-5.90;99.90;;;;;;5073549;28;20020;-71
2021/12/21 10:22:51;;;;;;;44.45;12.32;;;-5.90;99.90;;;;;;5073492;28;20016;-72
2021/12/21 10:25:17;;;;;;;28.83;11.40;;;-5.90;99.90;;;;;;5073342;28;20473;-72
2021/12/21 10:27:46;;;;;;;29.52;10.80;;;-5.80;99.90;;;;;;5073590;28;20082;-71
2021/12/21 10:30:13;;;;;;;26.77;11.98;;;-5.80;99.90;;;;;;5072008;28;20024;-71
2021/12/21 10:32:57;;;;;;;28.98;11.38;;;-5.70;99.90;;;;;;5073227;28;20020;-72
2021/12/21 10:35:34;;;;;;;31.58;12.38;;;-5.60;99.90;;;;;;5073214;28;20039;-71
2021/12/21 10:38:03;;;;;;;30.63;12.07;;;-5.50;99.90;;;;;;5073533;28;20082;-71
2021/12/21 10:40:29;;;;;;;28.92;12.75;;;-5.50;99.90;;;;;;5071933;28;20039;-72
2021/12/21 10:43:06;;;;;;;44.85;15.32;;;-5.40;99.90;;;;;;5073111;28;20021;-72
2021/12/21 10:45:42;;;;;;;32.25;12.68;;;-5.30;99.90;;;;;;5073202;28;20035;-71
2021/12/21 10:48:16;;;;;;;27.00;11.18;;;-5.30;99.90;;;;;;5073480;28;20021;-71
2021/12/21 10:50:44;;;;;;;38.20;13.07;;;-5.20;99.90;;;;;;5073733;28;20052;-71
2021/12/21 10:53:33;;;;;;;29.65;11.43;;;-5.10;99.90;;;;;;5072814;28;20068;-71
2021/12/21 10:56:07;;;;;;;36.28;12.07;;;-5.00;99.90;;;;;;5071911;28;20052;-71
2021/12/21 10:58:41;;;;;;;35.50;12.57;;;-4.90;99.90;;;;;;5073035;28;20035;-71
2021/12/21 11:01:11;;;;;;;40.25;14.40;;;-4.90;99.90;;;;;;5073100;28;20032;-71
2021/12/21 11:03:50;;;;;;;34.70;13.65;;;-4.80;99.90;;;;;;5072962;28;20074;-72
2021/12/21 11:06:20;;;;;;;32.05;11.93;;;-4.70;99.90;;;;;;5073301;28;20016;-72
2021/12/21 11:08:48;;;;;;;25.90;10.00;;;-4.70;99.90;;;;;;5073430;28;20017;-71
2021/12/21 11:11:22;;;;;;;25.55;9.30;;;-4.70;99.90;;;;;;5076951;28;20043;-71
2021/12/21 11:14:08;;;;;;;25.65;9.73;;;-4.60;99.90;;;;;;5076751;28;20028;-71
2021/12/21 11:16:44;;;;;;;26.17;10.00;;;-4.50;99.90;;;;;;5076679;28;20099;-72
2021/12/21 11:19:12;;;;;;;26.42;10.85;;;-4.50;99.90;;;;;;5076613;28;20099;-71
2021/12/21 11:21:39;;;;;;;29.83;9.82;;;-4.40;99.90;;;;;;5077041;28;20021;-72
2021/12/21 11:24:07;;;;;;;40.72;10.57;;;-4.30;99.90;;;;;;5076542;28;20481;-72
2021/12/21 11:26:35;;;;;;;34.60;10.40;;;-4.30;99.90;;;;;;5076443;28;20043;-72
2021/12/21 11:29:07;;;;;;;42.65;12.23;;;-4.20;99.90;;;;;;5075192;28;20024;-72
2021/12/21 11:31:44;;;;;;;40.13;10.82;;;-4.10;99.90;;;;;;5076593;28;20127;-72
2021/12/21 11:34:17;;;;;;;33.47;10.10;;;-4.10;99.90;;;;;;5076613;28;20029;-72
2021/12/21 11:39:34;;;;;;;47.17;12.30;;;-3.90;99.90;;;;;;5076408;28;20071;-71
2021/12/21 11:42:01;;;;;;;42.63;10.88;;;-3.90;99.90;;;;;;5076140;28;20484;-72
2021/12/21 11:44:39;;;;;;;39.50;12.07;;;-3.80;99.90;;;;;;5076144;28;20396;-72
2021/12/21 11:47:12;;;;;;;42.35;12.73;;;-3.80;99.90;;;;;;5076111;28;20099;-72
2021/12/21 11:50:00;;;;;;;55.25;15.95;;;-3.70;99.90;;;;;;5076031;28;20103;-72
2021/12/21 11:52:28;;;;;;;53.25;15.15;;;-3.60;99.90;;;;;;5076400;28;20488;-72
2021/12/21 11:55:06;;;;;;;45.63;16.85;;;-3.60;99.90;;;;;;5075910;28;20032;-72
2021/12/21 11:57:45;;;;;;;48.33;14.50;;;-3.60;99.90;;;;;;5076522;28;20035;-72
2021/12/21 12:00:19;;;;;;;49.50;15.95;;;-3.60;99.90;;;;;;5076525;28;20016;-72
2021/12/21 12:02:46;;;;;;;40.45;16.45;;;-3.50;99.90;;;;;;5075841;28;20039;-72
2021/12/21 12:05:28;;;;;;;31.80;12.23;;;-3.50;99.90;;;;;;5075796;28;20024;-72
2021/12/21 12:08:07;;;;;;;27.67;12.23;;;-3.40;99.90;;;;;;5076275;28;20490;-72
2021/12/21 12:10:57;;;;;;;29.67;11.98;;;-3.40;99.90;;;;;;5075911;28;20028;-72
2021/12/21 12:13:43;;;;;;;26.48;10.63;;;-3.30;99.90;;;;;;5074282;28;20116;-72
2021/12/21 12:16:16;;;;;;;21.55;10.50;;;-3.30;99.90;;;;;;5075841;28;20057;-72
2021/12/21 12:18:43;;;;;;;25.77;10.70;;;-3.20;99.90;;;;;;5075810;28;20059;-72
2021/12/21 12:21:17;;;;;;;21.50;10.27;;;-3.20;99.90;;;;;;5074011;28;20468;-72
2021/12/21 12:23:47;;;;;;;20.45;9.45;;;-3.10;99.90;;;;;;5075310;28;20024;-72
2021/12/21 12:26:25;;;;;;;25.48;10.45;;;-3.00;99.90;;;;;;5075286;28;20025;-72
2021/12/21 12:28:52;;;;;;;29.58;12.00;;;-3.00;99.90;;;;;;5075819;28;20013;-72
2021/12/21 12:31:39;;;;;;;27.65;11.07;;;-2.90;99.90;;;;;;5075281;28;20020;-72
2021/12/21 12:34:06;;;;;;;31.17;12.55;;;-2.80;99.90;;;;;;5075146;28;20024;-72
2021/12/21 12:36:50;;;;;;;28.60;11.38;;;-2.70;99.90;;;;;;5075150;28;20025;-72
2021/12/21 12:39:40;;;;;;;36.15;13.10;;;-2.60;99.90;;;;;;5073797;28;20056;-72
2021/12/21 12:42:17;;;;;;;37.13;12.67;;;-2.60;99.90;;;;;;5075254;28;20020;-72
2021/12/21 12:44:45;;;;;;;32.13;11.93;;;-2.50;99.90;;;;;;5075043;28;20400;-72
2021/12/21 12:47:13;;;;;;;30.20;12.45;;;-2.50;99.90;;;;;;5074924;28;20029;-72
2021/12/21 12:49:50;;;;;;;32.88;12.95;;;-2.40;99.90;;;;;;5074872;28;20063;-72
2021/12/21 12:52:20;;;;;;;26.02;13.05;;;-2.30;99.90;;;;;;5074910;28;20035;-72
2021/12/21 12:54:52;;;;;;;32.65;14.90;;;-2.30;99.90;;;;;;5073417;28;20056;-72
2021/12/21 12:57:27;;;;;;;33.13;14.77;;;-2.30;99.90;;;;;;5074788;28;20024;-71
2021/12/21 12:59:58;;;;;;;36.35;14.90;;;-2.20;99.90;;;;;;5073331;28;20055;-71
2021/12/21 13:02:25;;;;;;;35.67;15.18;;;-2.20;99.90;;;;;;5074565;28;20062;-71
2021/12/21 13:04:51;;;;;;;37.53;15.70;;;-2.10;99.90;;;;;;5074510;28;20077;-71
2021/12/21 13:07:26;;;;;;;37.80;16.30;;;-2.10;99.90;;;;;;5074743;28;20426;-71
2021/12/21 13:10:05;;;;;;;39.50;17.38;;;-2.00;99.90;;;;;;5074389;28;20111;-72
2021/12/21 13:12:31;;;;;;;45.70;18.83;;;-2.00;99.90;;;;;;5073074;28;20021;-71
2021/12/21 13:14:56;;;;;;;44.70;19.60;;;-2.00;99.90;;;;;;5074665;28;20032;-72
2021/12/21 13:17:22;;;;;;;42.63;17.98;;;-1.90;99.90;;;;;;5073116;28;20025;-72
2021/12/21 13:19:48;;;;;;;42.75;17.27;;;-1.90;99.90;;;;;;5074198;28;20028;-72
2021/12/21 13:22:19;;;;;;;42.40;16.52;;;-1.90;99.90;;;;;;5074042;28;20049;-72
2021/12/21 13:24:48;;;;;;;44.83;16.95;;;-1.90;99.90;;;;;;5074438;28;20024;-72
2021/12/21 13:27:14;;;;;;;39.92;16.08;;;-1.90;99.90;;;;;;5074446;28;20361;-72
2021/12/21 13:29:42;;;;;;;36.10;15.52;;;-1.90;99.90;;;;;;5074445;28;20023;-71
2021/12/21 13:32:10;;;;;;;41.40;16.85;;;-1.90;99.90;;;;;;5073382;28;20020;-70
2021/12/21 13:34:39;;;;;;;42.10;16.02;;;-2.00;99.90;;;;;;5073949;28;20024;-71
2021/12/21 13:37:07;;;;;;;49.42;15.85;;;-2.00;99.90;;;;;;5074294;28;20055;-71
2021/12/21 13:39:35;;;;;;;40.10;17.33;;;-2.00;99.90;;;;;;5073902;28;20029;-71
2021/12/21 13:42:00;;;;;;;37.78;15.73;;;-2.00;99.90;;;;;;5074139;28;20040;-71
2021/12/21 13:44:47;;;;;;;41.83;16.65;;;-2.00;99.90;;;;;;5073893;28;20444;-71
2021/12/21 13:47:23;;;;;;;41.28;17.10;;;-2.00;99.90;;;;;;5072516;28;20029;-71